Time;durP1;ratioP1;P1;durP2;ratioP2;P2;SDS_P1;SDS_P2;PMS_P1;PMS_P2;Temp;Humidity;BMP_temperature;BMP_pressure;BME280_temperature;BME280_humidity;BME280_pressure;Samples;Min_cycle;Max_cycle;Signal;HPM_P1;HPM_P2
2023/01/12 00:01:31;;;;;;;24.42;5.10;;;6.80;99.90;;;;;;5094551;28;20445;-72
2023/01/12 00:03:58;;;;;;;17.75;4.43;;;6.90;99.90;;;;;;5075579;28;20093;-71
2023/01/12 00:06:26;;;;;;;20.42;4.50;;;6.90;99.90;;;;;;5093997;28;20048;-71
2023/01/12 00:08:53;;;;;;;18.92;4.80;;;7.90;99.90;;;;;;5074389;28;20059;-71
2023/01/12 00:11:20;;;;;;;14.82;4.53;;;7.00;99.90;;;;;;5093671;28;20126;-71
2023/01/12 00:13:48;;;;;;;16.58;4.22;;;7.10;99.90;;;;;;5094269;28;20058;-71
2023/01/12 00:19:10;;;;;;;17.60;4.20;;;7.10;99.90;;;;;;5072334;28;20044;-71
2023/01/12 00:21:51;;;;;;;17.77;4.68;;;7.20;99.90;;;;;;5074103;28;20051;-71
2023/01/12 00:24:19;;;;;;;17.40;4.90;;;7.10;99.90;;;;;;5074448;28;20040;-71
2023/01/12 00:26:47;;;;;;;17.48;4.25;;;7.20;99.90;;;;;;5075547;28;20040;-70
2023/01/12 00:29:14;;;;;;;23.05;5.85;;;7.10;99.90;;;;;;5093768;28;20048;-72
2023/01/12 00:31:41;;;;;;;13.30;4.38;;;7.20;99.90;;;;;;5093083;28;20492;-71
2023/01/12 00:34:09;;;;;;;22.20;4.93;;;7.20;99.90;;;;;;5075549;28;20055;-71
2023/01/12 00:36:36;;;;;;;27.58;5.40;;;7.20;99.90;;;;;;5075568;28;20157;-71
2023/01/12 00:39:03;;;;;;;19.75;5.43;;;7.30;99.90;;;;;;5074757;28;20059;-71
2023/01/12 00:47:06;;;;;;;25.13;5.53;;;7.30;99.90;;;;;;5090296;28;20051;-71
2023/01/12 00:49:35;;;;;;;19.25;5.20;;;7.30;99.90;;;;;;5075376;28;20060;-71
2023/01/12 00:52:01;;;;;;;24.13;5.03;;;7.40;99.90;;;;;;5074382;28;20048;-71
2023/01/12 00:54:28;;;;;;;12.88;4.07;;;7.30;99.90;;;;;;5075314;28;20048;-71
2023/01/12 00:56:56;;;;;;;14.65;4.78;;;7.30;99.90;;;;;;5074878;28;20120;-70
2023/01/12 00:59:23;;;;;;;22.02;5.22;;;7.30;99.90;;;;;;5072402;28;20056;-71
2023/01/12 01:01:49;;;;;;;17.35;4.47;;;7.30;99.90;;;;;;5075178;28;20112;-71
2023/01/12 01:04:16;;;;;;;16.40;4.72;;;7.30;99.90;;;;;;5072632;28;20044;-71
2023/01/12 01:06:45;;;;;;;22.40;5.22;;;7.20;99.90;;;;;;5073344;28;20063;-71
2023/01/12 01:09:12;;;;;;;17.23;4.70;;;7.30;99.90;;;;;;5090724;28;20044;-73
2023/01/12 01:11:39;;;;;;;20.52;4.78;;;7.30;99.90;;;;;;5093177;28;20128;-68
2023/01/12 01:14:07;;;;;;;15.15;3.65;;;7.30;99.90;;;;;;5090133;28;20101;-67
2023/01/12 01:16:35;;;;;;;13.90;4.78;;;7.30;99.90;;;;;;5074130;28;20060;-67
2023/01/12 01:19:03;;;;;;;22.35;4.32;;;7.40;99.90;;;;;;5074919;28;20044;-67
2023/01/12 01:21:30;;;;;;;16.45;4.95;;;7.40;99.90;;;;;;5073756;28;20055;-68
2023/01/12 01:23:59;;;;;;;14.50;4.38;;;7.30;99.90;;;;;;5074678;28;20043;-68
2023/01/12 01:26:26;;;;;;;14.82;5.60;;;7.30;99.90;;;;;;5072452;28;20044;-68
2023/01/12 01:28:53;;;;;;;16.80;4.78;;;7.30;99.90;;;;;;5073935;28;20051;-68
2023/01/12 01:31:21;;;;;;;25.58;5.00;;;7.30;99.90;;;;;;5074402;28;20101;-68
2023/01/12 01:33:49;;;;;;;17.45;4.70;;;7.30;99.90;;;;;;5092208;28;20500;-68
2023/01/12 01:36:17;;;;;;;12.63;4.20;;;7.30;99.90;;;;;;5091664;28;20044;-68
2023/01/12 01:38:45;;;;;;;20.08;4.57;;;7.30;99.90;;;;;;5092309;28;20055;-67
2023/01/12 01:41:19;;;;;;;17.27;5.15;;;7.30;99.90;;;;;;5091922;28;20073;-68
2023/01/12 01:43:52;;;;;;;18.52;4.93;;;7.40;99.90;;;;;;5091257;28;20055;-68
2023/01/12 01:46:29;;;;;;;18.13;3.55;;;7.40;99.90;;;;;;5090838;28;20051;-68
2023/01/12 01:48:57;;;;;;;17.60;3.95;;;7.40;99.90;;;;;;5073687;28;20055;-68
2023/01/12 01:51:24;;;;;;;16.05;5.03;;;7.40;99.90;;;;;;5090316;28;20059;-68
2023/01/12 01:53:51;;;;;;;16.70;4.57;;;7.40;99.90;;;;;;5074021;28;20052;-68
2023/01/12 01:56:22;;;;;;;20.08;5.00;;;7.50;99.90;;;;;;5073307;28;20055;-68
2023/01/12 01:58:52;;;;;;;20.05;5.32;;;7.50;99.90;;;;;;5071856;28;20056;-68
2023/01/12 02:01:19;;;;;;;19.60;4.15;;;7.50;99.90;;;;;;5092179;28;20044;-68
2023/01/12 02:03:46;;;;;;;12.80;4.65;;;7.60;99.90;;;;;;5073329;28;20048;-68
2023/01/12 02:06:15;;;;;;;20.08;4.63;;;7.60;99.90;;;;;;5091942;28;20128;-68
2023/01/12 02:08:46;;;;;;;24.20;5.63;;;7.60;99.90;;;;;;5092119;28;20048;-68
2023/01/12 02:16:49;;;;;;;16.10;4.47;;;7.70;99.90;;;;;;5070657;28;20044;-67
2023/01/12 02:19:37;;;;;;;14.90;4.07;;;7.70;99.90;;;;;;5090257;28;20043;-68
2023/01/12 02:22:27;;;;;;;11.18;3.80;;;7.70;99.90;;;;;;5071740;28;20113;-68
2023/01/12 02:25:19;;;;;;;17.60;5.45;;;7.70;99.90;;;;;;5073194;28;20391;-68
2023/01/12 02:28:10;;;;;;;19.60;4.65;;;7.70;99.90;;;;;;5091548;28;20458;-68
2023/01/12 02:30:52;;;;;;;;;;;7.80;99.90;;;;;;5073706;28;20055;-68
2023/01/12 02:33:40;;;;;;;18.27;4.85;;;7.80;99.90;;;;;;5071849;28;20288;-68
2023/01/12 02:36:16;;;;;;;18.30;4.10;;;7.80;99.90;;;;;;5091373;28;20144;-69
2023/01/12 02:38:49;;;;;;;23.15;4.90;;;7.90;99.90;;;;;;5073084;28;20492;-68
2023/01/12 02:42:39;;;;;;;15.90;5.00;;;7.90;99.90;;;;;;5091351;28;20118;-68
2023/01/12 02:44:21;;;;;;;21.33;4.97;;;7.90;99.90;;;;;;5089286;28;20135;-68
2023/01/12 02:46:51;;;;;;;18.90;4.88;;;7.80;99.90;;;;;;5089442;28;20051;-68
2023/01/12 02:49:22;;;;;;;19.53;4.50;;;7.80;99.90;;;;;;5073675;28;20488;-69
2023/01/12 02:51:54;;;;;;;21.88;5.63;;;7.80;99.90;;;;;;5072766;28;20056;-68
2023/01/12 02:54:23;;;;;;;28.63;5.18;;;7.80;99.90;;;;;;5073206;28;21043;-68
2023/01/12 02:56:53;;;;;;;23.20;5.85;;;7.80;99.90;;;;;;5073352;28;20078;-68
2023/01/12 02:59:22;;;;;;;22.85;5.03;;;7.80;99.90;;;;;;5047284;28;20054;-68
2023/01/12 03:01:51;;;;;;;19.42;4.90;;;7.80;99.90;;;;;;5050004;28;20049;-69
2023/01/12 03:04:22;;;;;;;21.60;5.68;;;7.80;99.90;;;;;;5051524;28;20413;-67
2023/01/12 03:07:24;;;;;;;12.05;4.63;;;7.90;99.90;;;;;;5047160;28;20092;-68
2023/01/12 03:09:56;;;;;;;15.23;4.93;;;7.90;99.90;;;;;;5050404;28;20067;-68
2023/01/12 03:12:27;;;;;;;12.95;5.47;;;7.90;99.90;;;;;;5049313;28;20060;-68
2023/01/12 03:14:58;;;;;;;17.05;5.68;;;7.90;99.90;;;;;;5051265;28;20045;-68
2023/01/12 03:17:29;;;;;;;21.70;5.68;;;8.00;99.90;;;;;;5049957;28;20060;-68
2023/01/12 03:20:03;;;;;;;17.52;4.22;;;8.00;99.90;;;;;;5049522;28;20188;-68
2023/01/12 03:22:32;;;;;;;20.98;4.97;;;8.00;99.90;;;;;;5049932;28;20497;-68
2023/01/12 03:25:02;;;;;;;24.08;5.75;;;8.00;99.90;;;;;;5049644;28;20048;-68
2023/01/12 03:27:33;;;;;;;21.17;4.88;;;8.10;99.90;;;;;;5049119;28;20079;-68
2023/01/12 03:30:04;;;;;;;18.77;5.65;;;8.00;99.90;;;;;;5053695;28;20330;-68
2023/01/12 03:32:31;;;;;;;17.42;5.10;;;8.00;99.90;;;;;;5053411;28;20059;-68
2023/01/12 03:35:00;;;;;;;23.10;5.15;;;8.00;99.90;;;;;;5051576;28;20045;-73
2023/01/12 03:37:31;;;;;;;20.45;5.35;;;8.10;99.90;;;;;;5052955;28;20045;-73
2023/01/12 03:40:01;;;;;;;17.38;5.15;;;8.10;99.90;;;;;;5053382;28;20052;-72
2023/01/12 03:42:33;;;;;;;19.30;5.07;;;8.10;99.90;;;;;;5053935;28;20044;-73
2023/01/12 03:45:09;;;;;;;19.70;4.82;;;8.10;99.90;;;;;;5051092;28;20064;-73
2023/01/12 03:47:38;;;;;;;22.00;4.88;;;8.10;99.90;;;;;;5051424;28;20045;-73
2023/01/12 03:50:13;;;;;;;22.20;4.55;;;8.10;99.90;;;;;;5053347;28;20152;-72
2023/01/12 03:52:42;;;;;;;17.30;5.30;;;8.10;99.90;;;;;;5053002;28;20091;-72
2023/01/12 03:55:12;;;;;;;21.13;4.65;;;8.10;99.90;;;;;;5052743;28;20409;-73
2023/01/12 03:57:40;;;;;;;16.35;5.22;;;8.10;99.90;;;;;;5056917;28;20178;-72
2023/01/12 04:00:10;;;;;;;12.48;4.18;;;8.20;99.90;;;;;;5074425;28;20055;-71
2023/01/12 04:02:37;;;;;;;17.38;5.15;;;8.20;99.90;;;;;;5072427;28;20047;-72
2023/01/12 04:05:05;;;;;;;18.98;4.47;;;8.20;99.90;;;;;;5074075;28;20051;-72
2023/01/12 04:07:33;;;;;;;17.92;4.20;;;8.20;99.90;;;;;;5072516;28;20048;-72
2023/01/12 04:10:00;;;;;;;16.67;4.93;;;8.30;99.90;;;;;;5071274;28;20052;-72
2023/01/12 04:12:27;;;;;;;15.85;4.88;;;8.30;99.90;;;;;;5074060;28;20143;-72
2023/01/12 04:14:54;;;;;;;20.67;5.45;;;8.30;99.90;;;;;;5071876;28;20055;-72
2023/01/12 04:17:24;;;;;;;19.15;4.45;;;8.30;99.90;;;;;;5071925;28;20052;-71
2023/01/12 04:19:51;;;;;;;16.45;4.50;;;8.30;99.90;;;;;;5070704;28;20133;-69
2023/01/12 04:25:05;;;;;;;14.93;4.90;;;8.30;99.90;;;;;;5069779;28;20040;-68
2023/01/12 04:27:32;;;;;;;13.35;3.88;;;8.30;99.90;;;;;;5072171;28;20109;-67
2023/01/12 04:29:59;;;;;;;15.65;4.40;;;8.30;99.90;;;;;;5061627;28;20446;-68
2023/01/12 04:32:26;;;;;;;16.15;4.75;;;8.30;99.90;;;;;;5060595;28;20505;-68
2023/01/12 04:34:53;;;;;;;16.23;3.92;;;8.30;99.90;;;;;;5067319;28;20044;-68
2023/01/12 04:37:20;;;;;;;16.13;4.53;;;8.30;99.90;;;;;;5069351;28;20045;-68
2023/01/12 04:39:47;;;;;;;13.25;3.78;;;8.40;99.90;;;;;;5067655;28;20048;-69
2023/01/12 04:44:59;;;;;;;12.02;3.50;;;8.20;99.90;;;;;;5070771;28;20048;-68
2023/01/12 04:47:26;;;;;;;7.85;3.05;;;8.20;99.90;;;;;;5065560;28;20048;-69
2023/01/12 04:49:53;;;;;;;14.23;2.83;;;8.20;99.90;;;;;;5068756;28;20044;-68
2023/01/12 04:52:20;;;;;;;10.70;2.92;;;8.10;99.90;;;;;;5068462;28;20044;-69
2023/01/12 04:54:47;;;;;;;8.13;2.53;;;8.10;99.90;;;;;;5065424;28;20053;-69
2023/01/12 04:57:15;;;;;;;5.32;2.20;;;8.00;99.90;;;;;;5068260;28;20055;-69
2023/01/12 04:59:42;;;;;;;7.80;2.35;;;8.00;99.90;;;;;;5090690;28;20048;-70
2023/01/12 05:02:09;;;;;;;9.30;2.67;;;7.90;99.90;;;;;;5069846;28;20473;-69
2023/01/12 05:04:36;;;;;;;9.95;3.13;;;7.90;99.90;;;;;;5086044;28;20500;-68
2023/01/12 05:07:03;;;;;;;10.13;2.45;;;7.90;99.90;;;;;;5068303;28;20051;-68
2023/01/12 05:12:15;;;;;;;6.47;2.20;;;8.00;99.90;;;;;;5086741;28;20070;-68
2023/01/12 05:14:42;;;;;;;8.85;2.47;;;8.00;99.90;;;;;;5084142;28;20514;-68
2023/01/12 05:17:09;;;;;;;6.95;2.17;;;8.00;99.90;;;;;;5066426;28;20071;-69
2023/01/12 05:19:36;;;;;;;7.25;1.98;;;8.00;99.90;;;;;;5065073;28;20067;-70
2023/01/12 05:22:03;;;;;;;9.40;2.70;;;7.90;99.90;;;;;;5083683;28;20052;-69
2023/01/12 05:24:30;;;;;;;8.43;2.22;;;7.90;99.90;;;;;;5084557;28;20082;-68
2023/01/12 05:26:57;;;;;;;8.35;1.90;;;7.90;99.90;;;;;;5086199;28;20048;-69
2023/01/12 05:29:25;;;;;;;7.68;2.00;;;7.90;99.90;;;;;;5070071;28;20051;-69
2023/01/12 05:31:52;;;;;;;6.45;2.20;;;7.90;99.90;;;;;;5067772;28;20116;-69
2023/01/12 05:34:19;;;;;;;6.18;2.00;;;7.90;99.90;;;;;;5083938;28;20044;-68
2023/01/12 05:36:46;;;;;;;6.00;2.33;;;7.90;99.90;;;;;;5070661;28;20134;-68
2023/01/12 05:39:13;;;;;;;5.43;1.90;;;7.90;99.90;;;;;;5086589;28;20048;-68
2023/01/12 05:43:48;;;;;;;5.85;2.00;;;7.90;99.90;;;;;;5082371;28;20048;-68
2023/01/12 05:44:28;;;;;;;6.57;2.05;;;7.90;99.90;;;;;;5066320;28;20109;-68
2023/01/12 05:46:54;;;;;;;5.68;2.17;;;7.90;99.90;;;;;;5087426;28;20492;-69
2023/01/12 05:49:21;;;;;;;4.60;2.05;;;7.90;99.90;;;;;;5086185;28;20469;-69
2023/01/12 05:51:48;;;;;;;2.60;1.75;;;7.90;99.90;;;;;;5083081;28;20048;-69
2023/01/12 05:54:15;;;;;;;3.33;1.75;;;7.90;99.90;;;;;;5084101;28;20040;-68
2023/01/12 05:56:43;;;;;;;4.20;1.85;;;7.90;99.90;;;;;;5067441;28;20056;-68
2023/01/12 05:59:11;;;;;;;4.07;1.55;;;7.90;99.90;;;;;;5088133;28;20147;-68
2023/01/12 06:01:40;;;;;;;6.47;1.95;;;7.90;99.90;;;;;;5067041;28;20055;-68
2023/01/12 06:04:07;;;;;;;4.22;1.80;;;7.90;99.90;;;;;;5085763;28;20044;-68
2023/01/12 06:06:34;;;;;;;4.30;1.50;;;7.90;99.90;;;;;;5081408;28;20065;-68
2023/01/12 06:09:01;;;;;;;3.15;1.35;;;7.90;99.90;;;;;;5071225;28;20044;-68
2023/01/12 06:14:13;;;;;;;3.53;1.70;;;7.90;99.90;;;;;;5067228;28;20040;-69
2023/01/12 06:16:44;;;;;;;2.50;1.80;;;8.00;99.90;;;;;;5066301;28;20048;-69
2023/01/12 06:19:11;;;;;;;2.80;1.55;;;8.00;99.90;;;;;;5067945;28;20052;-69
2023/01/12 06:21:39;;;;;;;3.78;1.40;;;8.00;99.90;;;;;;5071323;28;20114;-69
2023/01/12 06:24:06;;;;;;;2.40;1.50;;;8.00;99.90;;;;;;5086737;28;20526;-69
2023/01/12 06:26:33;;;;;;;3.00;1.60;;;8.10;99.90;;;;;;5069646;28;20048;-69
2023/01/12 06:29:02;;;;;;;3.63;1.60;;;8.10;99.90;;;;;;5069144;28;20047;-69
2023/01/12 06:31:29;;;;;;;3.28;1.40;;;8.10;99.90;;;;;;5085429;28;20055;-69
2023/01/12 06:33:57;;;;;;;4.35;1.50;;;8.10;99.90;;;;;;5084087;28;20047;-68
2023/01/12 06:36:24;;;;;;;2.45;1.40;;;8.20;99.90;;;;;;5083623;28;20051;-68
2023/01/12 06:38:51;;;;;;;2.22;1.20;;;8.20;99.90;;;;;;5085744;28;20048;-68
2023/01/12 06:44:02;;;;;;;3.40;1.40;;;8.30;99.90;;;;;;5087799;28;20507;-69
2023/01/12 06:46:30;;;;;;;2.25;1.70;;;8.30;99.90;;;;;;5085110;28;20044;-68
2023/01/12 06:48:59;;;;;;;2.15;1.33;;;8.40;99.90;;;;;;5069394;28;20056;-68
2023/01/12 06:51:26;;;;;;;2.58;1.50;;;8.40;99.90;;;;;;5067065;28;20049;-69
2023/01/12 06:53:53;;;;;;;3.33;1.65;;;8.40;99.90;;;;;;5067954;28;20056;-69
2023/01/12 06:56:20;;;;;;;2.80;1.45;;;8.50;99.90;;;;;;5087711;28;20055;-68
2023/01/12 06:58:47;;;;;;;2.85;1.55;;;8.60;99.90;;;;;;5087871;28;20048;-69
2023/01/12 07:01:14;;;;;;;5.40;1.90;;;8.60;99.90;;;;;;5087679;28;20400;-69
2023/01/12 07:03:41;;;;;;;4.10;1.75;;;8.70;99.90;;;;;;5069919;28;20057;-68
2023/01/12 07:06:09;;;;;;;6.25;2.10;;;8.70;99.90;;;;;;5074184;28;20535;-69
2023/01/12 07:08:36;;;;;;;6.10;2.83;;;8.90;99.90;;;;;;5074370;28;20044;-69
2023/01/12 07:11:06;;;;;;;7.13;2.22;;;8.90;99.90;;;;;;5074547;28;20051;-69
2023/01/12 07:13:34;;;;;;;9.37;2.77;;;8.90;99.90;;;;;;5076214;28;20055;-68
2023/01/12 07:16:01;;;;;;;8.05;2.75;;;9.00;99.90;;;;;;5076958;28;20286;-68
2023/01/12 07:18:29;;;;;;;9.05;3.10;;;9.00;99.90;;;;;;5074563;28;20044;-68
2023/01/12 07:20:56;;;;;;;6.22;2.92;;;9.10;99.90;;;;;;5076253;28;20048;-68
2023/01/12 07:23:26;;;;;;;11.63;3.33;;;9.10;99.90;;;;;;5076782;28;20052;-68
2023/01/12 07:25:53;;;;;;;6.93;3.30;;;9.20;99.90;;;;;;5094008;28;20044;-69
2023/01/12 07:28:20;;;;;;;10.48;3.30;;;9.20;99.90;;;;;;5076780;28;20059;-70
2023/01/12 07:30:47;;;;;;;8.40;3.35;;;9.30;99.90;;;;;;5094992;28;20048;-70
2023/01/12 07:33:14;;;;;;;10.90;3.47;;;9.30;99.90;;;;;;5075944;28;20058;-69
2023/01/12 07:35:42;;;;;;;11.15;3.38;;;9.30;99.90;;;;;;5094629;28;20491;-69
2023/01/12 07:38:10;;;;;;;13.80;3.67;;;9.40;99.90;;;;;;5076567;28;20109;-69
2023/01/12 07:40:38;;;;;;;20.30;4.32;;;9.40;99.90;;;;;;5073815;28;20117;-69
2023/01/12 07:43:07;;;;;;;15.63;4.20;;;9.50;99.90;;;;;;5094289;28;20541;-68
2023/01/12 07:45:34;;;;;;;17.00;4.05;;;9.50;99.90;;;;;;5094200;28;20048;-68
2023/01/12 07:48:01;;;;;;;10.93;3.55;;;9.50;99.90;;;;;;5073543;28;20052;-68
2023/01/12 07:50:28;;;;;;;17.95;4.13;;;9.60;99.90;;;;;;5094277;28;20093;-69
2023/01/12 07:52:59;;;;;;;14.75;4.88;;;9.60;99.90;;;;;;5076396;28;20047;-68
2023/01/12 07:55:26;;;;;;;22.48;4.97;;;9.60;99.90;;;;;;5091655;28;20044;-68
2023/01/12 07:57:55;;;;;;;18.13;5.25;;;9.60;99.90;;;;;;5067981;28;20118;-68
2023/01/12 08:00:23;;;;;;;12.00;3.95;;;9.60;99.90;;;;;;5094266;28;20048;-68
2023/01/12 08:02:51;;;;;;;18.70;4.93;;;9.70;99.90;;;;;;5073254;28;20519;-69
2023/01/12 08:05:18;;;;;;;15.45;4.10;;;9.70;99.90;;;;;;5076072;28;20499;-69
2023/01/12 08:07:45;;;;;;;16.40;4.93;;;9.80;99.90;;;;;;5093254;28;20438;-68
2023/01/12 08:10:14;;;;;;;20.75;4.93;;;9.80;99.90;;;;;;5076919;28;20048;-68
2023/01/12 08:12:41;;;;;;;13.68;4.35;;;9.90;99.90;;;;;;5064202;28;20086;-68
2023/01/12 08:15:11;;;;;;;19.75;5.03;;;9.90;99.90;;;;;;5085657;28;20048;-67
2023/01/12 08:17:44;;;;;;;16.38;4.40;;;9.90;99.90;;;;;;5091791;28;20048;-68
2023/01/12 08:20:16;;;;;;;19.63;4.22;;;9.90;99.90;;;;;;5082982;28;20040;-68
2023/01/12 08:22:47;;;;;;;13.00;3.83;;;10.00;99.90;;;;;;5067029;28;20055;-69
2023/01/12 08:25:17;;;;;;;15.00;4.00;;;10.00;99.90;;;;;;5070105;28;20048;-69
2023/01/12 08:27:48;;;;;;;11.27;3.45;;;10.00;99.90;;;;;;5073257;28;20055;-70
2023/01/12 08:30:16;;;;;;;;;;;10.00;99.90;;;;;;5066521;28;20051;-70
2023/01/12 08:32:45;;;;;;;12.32;3.38;;;10.10;99.90;;;;;;5071886;28;19981;-69
2023/01/12 08:35:14;;;;;;;15.20;4.32;;;10.10;99.90;;;;;;5068800;28;20051;-68
2023/01/12 08:37:41;;;;;;;15.00;3.97;;;10.10;99.90;;;;;;5069405;28;20488;-69
2023/01/12 08:40:09;;;;;;;13.80;4.03;;;10.10;99.90;;;;;;5070795;28;20061;-69
2023/01/12 08:42:36;;;;;;;16.35;3.92;;;10.10;99.90;;;;;;5071748;28;20051;-69
2023/01/12 08:45:05;;;;;;;16.02;4.30;;;10.10;99.90;;;;;;5085637;28;20051;-69
2023/01/12 08:47:32;;;;;;;11.77;4.13;;;10.10;99.90;;;;;;5084298;28;20498;-68
2023/01/12 08:50:01;;;;;;;14.88;3.35;;;10.10;99.90;;;;;;5088471;28;20055;-69
2023/01/12 08:52:30;;;;;;;16.48;4.72;;;10.10;99.90;;;;;;5067251;28;20056;-69
2023/01/12 08:54:57;;;;;;;13.52;4.28;;;10.20;99.90;;;;;;5089354;28;20047;-69
2023/01/12 08:57:24;;;;;;;10.27;3.70;;;10.20;99.90;;;;;;5082407;28;20733;-69
2023/01/12 08:59:51;;;;;;;17.38;3.92;;;10.10;99.90;;;;;;5085540;28;20048;-68
2023/01/12 09:02:18;;;;;;;16.42;4.45;;;10.10;99.90;;;;;;5087364;28;20040;-69
2023/01/12 09:04:45;;;;;;;15.82;3.67;;;10.30;99.90;;;;;;5066574;28;20055;-68
2023/01/12 09:07:13;;;;;;;15.35;3.47;;;10.20;99.90;;;;;;5084786;28;20051;-68
2023/01/12 09:09:40;;;;;;;15.38;3.67;;;10.20;99.90;;;;;;5088727;28;20051;-68
2023/01/12 09:12:07;;;;;;;14.63;4.00;;;10.20;99.90;;;;;;5068019;28;20089;-68
2023/01/12 09:14:37;;;;;;;11.88;3.20;;;10.20;99.90;;;;;;5085989;28;20412;-68
2023/01/12 09:17:05;;;;;;;22.92;4.35;;;10.20;99.90;;;;;;5085706;28;20097;-68
2023/01/12 09:19:32;;;;;;;16.05;4.72;;;10.20;99.90;;;;;;5067986;28;20123;-68
2023/01/12 09:21:59;;;;;;;17.40;4.53;;;10.20;99.90;;;;;;5067823;28;20047;-68
2023/01/12 09:24:27;;;;;;;17.65;3.72;;;10.20;99.90;;;;;;5087676;28;20114;-68
2023/01/12 09:26:54;;;;;;;13.93;3.33;;;10.30;99.90;;;;;;5084708;28;20461;-68
2023/01/12 09:29:20;;;;;;;13.25;3.25;;;10.40;99.90;;;;;;5067128;28;20048;-68
2023/01/12 09:31:47;;;;;;;17.33;4.25;;;10.30;99.90;;;;;;5067121;28;20143;-68
2023/01/12 09:34:14;;;;;;;12.13;3.95;;;10.30;99.90;;;;;;5085554;28;20514;-68
2023/01/12 09:36:43;;;;;;;14.27;4.05;;;10.30;99.90;;;;;;5067430;28;20048;-69
2023/01/12 09:39:15;;;;;;;17.88;3.95;;;10.20;99.90;;;;;;5072014;28;20048;-68
2023/01/12 09:47:26;;;;;;;14.30;3.90;;;10.30;99.90;;;;;;5085725;28;20051;-68
2023/01/12 09:49:58;;;;;;;13.10;3.53;;;10.30;99.90;;;;;;5083772;28;20062;-68
2023/01/12 09:52:29;;;;;;;17.73;4.43;;;10.40;99.90;;;;;;5065667;28;20058;-68
2023/01/12 09:54:57;;;;;;;24.05;5.10;;;10.50;99.90;;;;;;5086048;28;20040;-68
2023/01/12 09:58:01;;;;;;;13.10;3.58;;;10.50;99.90;;;;;;5066952;28;20048;-67
2023/01/12 10:00:28;;;;;;;10.80;3.28;;;10.50;99.90;;;;;;5089283;28;20044;-69
2023/01/12 10:03:05;;;;;;;12.85;4.32;;;10.40;99.90;;;;;;5090756;28;20507;-68
2023/01/12 10:05:40;;;;;;;14.15;2.95;;;10.40;99.90;;;;;;5073857;28;20047;-68
2023/01/12 10:08:17;;;;;;;11.95;3.50;;;10.30;99.90;;;;;;5090929;28;20059;-68
2023/01/12 10:11:02;;;;;;;20.05;4.03;;;9.90;99.90;;;;;;5073290;28;20446;-69
2023/01/12 10:13:47;;;;;;;13.68;4.07;;;10.40;99.90;;;;;;5072616;28;20044;-68
2023/01/12 10:16:21;;;;;;;12.45;3.55;;;10.30;99.90;;;;;;5071004;28;20052;-68
2023/01/12 10:18:53;;;;;;;20.17;3.53;;;10.40;99.90;;;;;;5089648;28;20097;-68
2023/01/12 10:21:23;;;;;;;15.27;3.55;;;10.40;99.90;;;;;;5092029;28;20048;-68
2023/01/12 10:23:50;;;;;;;13.45;3.90;;;10.40;99.90;;;;;;5091650;28;20044;-68
2023/01/12 10:26:22;;;;;;;20.00;4.40;;;10.40;99.90;;;;;;5073642;28;20487;-68
2023/01/12 10:28:53;;;;;;;11.63;3.60;;;10.40;99.90;;;;;;5088725;28;20047;-68
2023/01/12 10:31:22;;;;;;;14.98;3.75;;;10.40;99.90;;;;;;5073712;28;20056;-68
2023/01/12 10:34:06;;;;;;;14.07;3.58;;;10.50;99.90;;;;;;5091523;28;20048;-68
2023/01/12 10:36:35;;;;;;;10.15;3.28;;;10.60;99.90;;;;;;5072911;28;20044;-68
2023/01/12 10:39:04;;;;;;;13.30;4.00;;;10.60;99.90;;;;;;5076117;28;20044;-67
2023/01/12 10:41:32;;;;;;;13.90;3.60;;;10.60;99.90;;;;;;5077463;28;20046;-74
2023/01/12 10:44:21;;;;;;;7.45;3.13;;;10.60;99.90;;;;;;5092635;28;20508;-69
2023/01/12 10:47:08;;;;;;;11.57;2.92;;;10.50;99.90;;;;;;5068780;28;20047;-68
2023/01/12 10:49:37;;;;;;;13.65;3.83;;;10.50;99.90;;;;;;5076724;28;20048;-75
2023/01/12 10:52:09;;;;;;;15.98;3.50;;;10.50;99.90;;;;;;5075037;28;20059;-78
2023/01/12 10:54:40;;;;;;;11.55;3.95;;;10.50;99.90;;;;;;5075744;28;20043;-69
2023/01/12 10:57:16;;;;;;;13.20;3.85;;;10.40;99.90;;;;;;5076291;28;20109;-70
2023/01/12 10:59:51;;;;;;;13.85;3.20;;;10.40;99.90;;;;;;5095450;28;20105;-69
2023/01/12 11:02:18;;;;;;;17.02;3.63;;;10.50;99.90;;;;;;5077107;28;20403;-70
2023/01/12 11:04:46;;;;;;;8.07;3.25;;;10.50;99.90;;;;;;5076732;28;20044;-69
2023/01/12 11:07:15;;;;;;;11.30;3.53;;;10.40;99.90;;;;;;5095067;28;20056;-70
2023/01/12 11:09:43;;;;;;;13.50;2.88;;;10.40;99.90;;;;;;5077321;28;20502;-69
2023/01/12 11:12:24;;;;;;;14.00;3.67;;;10.40;99.90;;;;;;5076524;28;20048;-69
2023/01/12 11:15:01;;;;;;;16.08;3.50;;;10.40;99.90;;;;;;5076465;28;20047;-70
2023/01/12 11:17:46;;;;;;;19.00;4.43;;;10.50;99.90;;;;;;5094763;28;20047;-69
2023/01/12 11:20:21;;;;;;;18.67;3.70;;;10.50;99.90;;;;;;5092603;28;20101;-69
2023/01/12 11:22:51;;;;;;;13.63;4.45;;;10.50;99.90;;;;;;5077003;28;20476;-69
2023/01/12 11:25:23;;;;;;;13.43;3.38;;;10.60;99.90;;;;;;5094370;28;20044;-70
2023/01/12 11:27:55;;;;;;;12.18;3.15;;;10.70;99.90;;;;;;5076589;28;20511;-70
2023/01/12 11:30:28;;;;;;;8.00;3.28;;;10.80;99.90;;;;;;5076660;28;20048;-70
2023/01/12 11:32:58;;;;;;;10.43;3.28;;;10.90;99.90;;;;;;5076345;28;20056;-70
2023/01/12 11:35:34;;;;;;;15.57;4.18;;;10.90;99.90;;;;;;5075255;28;20055;-69
2023/01/12 11:38:08;;;;;;;16.35;4.30;;;10.90;99.90;;;;;;5074968;28;20138;-69
2023/01/12 11:40:37;;;;;;;12.38;3.20;;;10.90;99.90;;;;;;5073291;28;20506;-69
2023/01/12 11:46:07;;;;;;;9.88;3.38;;;11.00;99.90;;;;;;5091683;28;20093;-69
2023/01/12 11:48:44;;;;;;;9.68;2.80;;;11.10;99.90;;;;;;5075970;28;20052;-70
2023/01/12 11:51:12;;;;;;;14.90;3.88;;;11.10;99.90;;;;;;5073623;28;20101;-69
2023/01/12 11:53:40;;;;;;;10.20;3.47;;;11.20;99.90;;;;;;5075602;28;20048;-69
2023/01/12 11:56:19;;;;;;;10.23;3.05;;;11.30;99.90;;;;;;5076085;28;20047;-70
2023/01/12 11:58:56;;;;;;;13.35;3.33;;;11.40;99.90;;;;;;5074752;28;20438;-70
2023/01/12 12:01:32;;;;;;;12.57;4.15;;;11.60;99.90;;;;;;5093685;28;20066;-69
2023/01/12 12:04:02;;;;;;;7.88;2.85;;;11.90;99.90;;;;;;5094114;28;20059;-69
2023/01/12 12:06:44;;;;;;;13.15;3.53;;;12.10;99.90;;;;;;5076351;28;20040;-69
2023/01/12 12:09:41;;;;;;;10.27;3.00;;;12.00;99.90;;;;;;5091230;28;20048;-70
2023/01/12 12:12:16;;;;;;;15.55;3.40;;;11.80;99.90;;;;;;5092228;28;20404;-70
2023/01/12 12:14:57;;;;;;;10.50;2.50;;;11.80;99.90;;;;;;5074396;28;20052;-69
2023/01/12 12:17:31;;;;;;;7.45;2.70;;;11.60;99.90;;;;;;5075188;28;20489;-70
2023/01/12 12:20:07;;;;;;;12.75;3.70;;;11.50;99.90;;;;;;5075845;28;20449;-70
2023/01/12 12:22:58;;;;;;;8.45;2.42;;;11.50;99.90;;;;;;5075451;28;20389;-70
2023/01/12 12:25:30;;;;;;;8.98;2.92;;;11.40;99.90;;;;;;5062409;28;20052;-70
2023/01/12 12:28:25;;;;;;;12.73;3.30;;;11.40;99.90;;;;;;5072632;28;20101;-70
2023/01/12 12:31:12;;;;;;;12.10;3.83;;;11.40;99.90;;;;;;5067057;28;20056;-69
2023/01/12 12:34:05;;;;;;;10.75;2.85;;;11.40;99.90;;;;;;5071157;28;20495;-70
2023/01/12 12:36:40;;;;;;;16.20;2.78;;;11.40;99.90;;;;;;5044272;28;20789;-70
2023/01/12 12:39:33;;;;;;;12.48;2.92;;;11.30;99.90;;;;;;5092067;28;20048;-69
2023/01/12 12:45:19;;;;;;;12.52;3.00;;;11.10;99.90;;;;;;5087973;28;20047;-69
2023/01/12 12:47:56;;;;;;;15.65;3.25;;;10.90;99.90;;;;;;5083335;28;20041;-70
2023/01/12 12:50:29;;;;;;;14.15;3.80;;;10.80;99.90;;;;;;5084851;28;20115;-69
2023/01/12 12:53:11;;;;;;;13.93;3.30;;;10.90;99.90;;;;;;5090564;28;20400;-70
2023/01/12 12:55:38;;;;;;;12.55;3.33;;;10.90;99.90;;;;;;5065952;28;20059;-70
2023/01/12 12:58:25;;;;;;;9.40;3.47;;;11.00;99.90;;;;;;5067205;28;20504;-70
2023/01/12 13:00:53;;;;;;;14.30;3.63;;;11.10;99.90;;;;;;5085168;28;20055;-70
2023/01/12 13:03:48;;;;;;;23.35;4.47;;;11.10;99.90;;;;;;5069012;28;20101;-69
2023/01/12 13:06:21;;;;;;;13.10;3.30;;;11.10;99.90;;;;;;5067868;28;20556;-71
2023/01/12 13:08:51;;;;;;;13.63;4.68;;;11.10;99.90;;;;;;5069998;28;20191;-70
2023/01/12 13:11:19;;;;;;;16.48;3.70;;;11.10;99.90;;;;;;5085821;28;20058;-70
2023/01/12 13:14:03;;;;;;;12.13;4.00;;;11.10;99.90;;;;;;5085678;28;20499;-71
2023/01/12 13:16:46;;;;;;;14.48;3.83;;;11.10;99.90;;;;;;5069756;28;20492;-70
2023/01/12 13:19:31;;;;;;;14.48;4.38;;;11.10;99.90;;;;;;5087923;28;20048;-71
2023/01/12 13:22:18;;;;;;;12.70;4.20;;;11.10;99.90;;;;;;5067777;28;20052;-72
2023/01/12 13:24:45;;;;;;;15.50;3.65;;;11.10;99.90;;;;;;5071939;28;20051;-70
2023/01/12 13:27:46;;;;;;;17.95;4.10;;;11.20;99.90;;;;;;5068110;28;20048;-72
2023/01/12 13:30:38;;;;;;;13.73;3.55;;;11.10;99.90;;;;;;5084288;28;20484;-71
2023/01/12 13:33:21;;;;;;;14.65;4.82;;;11.10;99.90;;;;;;5066590;28;20052;-70
2023/01/12 13:36:07;;;;;;;18.98;3.78;;;11.20;99.90;;;;;;5067667;28;20099;-69
2023/01/12 13:38:53;;;;;;;10.80;3.28;;;11.10;99.90;;;;;;5089281;28;20472;-69
2023/01/12 13:44:13;;;;;;;20.35;3.58;;;11.20;99.90;;;;;;5066093;28;20048;-70
2023/01/12 13:46:45;;;;;;;14.38;3.38;;;11.20;99.90;;;;;;5072832;28;20051;-70
2023/01/12 13:49:31;;;;;;;14.10;4.65;;;11.10;99.90;;;;;;5073329;28;20479;-70